Coalport, PA (16627)

8:21 PM EST on February 09, 2016 (GMT -0500)
The Garden | | Change Station
CLOSE
Current Station
Personal Weather Station
Location: Houtzdale, PA
Elevation: 1578 ft
Nearby Weather Stations

Elev 1578 ft 40.79 °N, 78.37 °W | Updated 7 seconds ago

Overcast
Overcast
27.3 °F
Feels Like 27 °F
N
1.3
Wind Variable Wind from SW
Gusts 2.5 mph

Today
High -- | Low -- °F
--% Chance of Precip.
Yesterday
High -- | Low -- °F
Precip. -- in
Pressure 29.63 in
Visibility 10.0 miles
Clouds Few 1700 ft
Overcast 2900 ft
Windchill 27 °F
Dew Point 19 °F
Humidity 72%
Rainfall 0.02 in
Snow Depth Not available.
7:16 AM 5:41 PM
Waxing Crescent, 3% visible
METAR KFIG 100054Z AUTO 23008KT 10SM FEW017 OVC029 M02/M04 A2958 RMK AO2 SLP033 T10171044
Pressure 29.63 in
Visibility 10.0 miles
Clouds Few 1700 ft
Overcast 2900 ft
Windchill 27 °F
Dew Point 19 °F
Humidity 72%
Rainfall 0.02 in
Snow Depth Not available.
7:16 AM 5:41 PM
Waxing Crescent, 3% visible
METAR KFIG 100054Z AUTO 23008KT 10SM FEW017 OVC029 M02/M04 A2958 RMK AO2 SLP033 T10171044
Winter Storm Nacio, the third winter storm in five days to affect the Northeast, is bringing pockets of locally heavy snow to parts of the Ohio Valley, Appalachians and mid-Atlantic states Tuesday. Winter storm warnings are posted for parts of southern Pennsylvania, southern Ohio and the higher peaks of the Appalachians. Winter weather advisories, generally for lighter snow accumulations, stretch from northeast Alabama and far north Georgia to southern Connecticut and Long Island.

10-Day Weather Forecast

Almanac

Astronomy

Feb. 09, 2016 Rise Set
Actual Time
Civil Twilight
Nautical Twilight
Astronomical Twilight
Moon
Length of Visible Light
Length of Day
Tomorrow will be .
, % of the Moon is Illuminated

Today's Extremes

State Highs State Lows

Community

WunderPhotos

Upload Photos

1,891,758 photos uploaded!

WunderBlog® & News

Nearby

Air Quality

  Air Quality AQ Index Pollutant
Not available.

Snow Depth

Station Depth Elevation

Earthquake Activity

City Distance Mag. Time & Date
Minimum magnitude displayed is 2.5.

Coastal Water Temperatures

Place Temperature

Stations

Nearby Weather Stations

Station Location Temp. Windchill Dew Point Humidity Wind Precip. Elev Updated Type
                   

Watches & Warnings

There are currently no watches in effect.